createdAt,value
2023-05-19T00:01:49.151Z,88.51
2023-05-19T00:04:19.923Z,89.26
2023-05-19T00:06:52.057Z,88.53
2023-05-19T00:09:20.263Z,88.83
2023-05-19T00:11:48.656Z,88.83
2023-05-19T00:14:17.080Z,89.53
2023-05-19T00:16:45.376Z,88.59
2023-05-19T00:19:13.169Z,89.50
2023-05-19T00:21:41.304Z,89.35
2023-05-19T00:24:10.610Z,89.41
2023-05-19T00:26:38.366Z,89.68
2023-05-19T00:29:06.486Z,88.88
2023-05-19T00:31:34.897Z,88.71
2023-05-19T00:34:02.901Z,89.01
2023-05-19T00:36:31.010Z,89.30
2023-05-19T00:38:58.740Z,89.85
2023-05-19T00:41:28.013Z,90.14
2023-05-19T00:43:56.412Z,89.40
2023-05-19T00:46:24.325Z,89.25
2023-05-19T00:48:52.087Z,88.74
2023-05-19T00:51:20.166Z,88.20
2023-05-19T00:53:51.062Z,88.49
2023-05-19T00:56:19.711Z,88.71
2023-05-19T00:58:51.602Z,88.35
2023-05-19T01:01:21.610Z,87.81
2023-05-19T01:03:49.904Z,88.17
2023-05-19T01:06:19.059Z,88.73
2023-05-19T01:08:47.249Z,88.82
2023-05-19T01:11:15.032Z,88.15
2023-05-19T01:13:42.984Z,88.61
2023-05-19T01:16:19.150Z,88.57
2023-05-19T01:18:57.682Z,88.98
2023-05-19T01:21:54.935Z,89.10
2023-05-19T01:24:46.814Z,89.48
2023-05-19T01:27:37.035Z,89.55
2023-05-19T01:30:32.139Z,90.12
2023-05-19T01:33:02.447Z,88.67
2023-05-19T01:35:32.951Z,89.43
2023-05-19T01:38:02.071Z,88.93
2023-05-19T01:40:31.647Z,89.41
2023-05-19T01:43:02.340Z,89.96
2023-05-19T01:45:34.188Z,90.09
2023-05-19T01:48:04.844Z,90.40
2023-05-19T01:50:33.683Z,90.72
2023-05-19T01:53:02.292Z,90.73
2023-05-19T01:55:30.286Z,89.96
2023-05-19T01:58:07.584Z,90.08
2023-05-19T02:00:48.887Z,90.14
2023-05-19T02:03:27.843Z,90.39
2023-05-19T02:06:03.172Z,90.57
2023-05-19T02:08:34.478Z,90.72
2023-05-19T02:11:07.177Z,90.52
2023-05-19T02:13:38.476Z,91.04
2023-05-19T02:16:09.305Z,91.11
2023-05-19T02:18:37.394Z,91.31
2023-05-19T02:21:05.428Z,91.65
2023-05-19T02:23:34.239Z,92.02
2023-05-19T02:26:02.469Z,91.93
2023-05-19T02:28:30.227Z,92.06
2023-05-19T02:30:57.966Z,91.60
2023-05-19T02:33:27.508Z,91.92
2023-05-19T02:35:56.219Z,92.29
2023-05-19T02:38:24.113Z,92.95
2023-05-19T02:40:52.591Z,93.31
2023-05-19T02:43:20.677Z,92.60
2023-05-19T02:45:48.380Z,91.65
2023-05-19T02:48:16.136Z,91.70
2023-05-19T02:50:45.267Z,91.12
2023-05-19T02:53:13.090Z,91.69
2023-05-19T02:55:40.846Z,90.20
2023-05-19T02:58:08.653Z,90.65
2023-05-19T03:00:36.435Z,90.61
2023-05-19T03:03:04.537Z,90.70
2023-05-19T03:05:32.917Z,89.66
2023-05-19T03:08:02.132Z,89.37
2023-05-19T03:10:29.978Z,90.12
2023-05-19T03:12:57.816Z,90.47
2023-05-19T03:15:25.802Z,90.58
2023-05-19T03:17:53.832Z,90.57
2023-05-19T03:20:22.073Z,90.52
2023-05-19T03:22:49.896Z,90.23
2023-05-19T03:25:20.070Z,90.42
2023-05-19T03:27:47.849Z,91.17
2023-05-19T03:30:15.876Z,91.62
2023-05-19T03:32:43.819Z,90.62
2023-05-19T03:35:11.741Z,91.09
2023-05-19T03:37:39.487Z,90.88
2023-05-19T03:40:09.199Z,91.04
2023-05-19T03:42:38.731Z,91.48
2023-05-19T03:45:07.501Z,89.99
2023-05-19T03:47:35.331Z,90.38
2023-05-19T03:50:03.264Z,90.12
2023-05-19T03:52:31.055Z,89.84
2023-05-19T03:54:58.831Z,89.89
2023-05-19T03:57:26.927Z,89.15
2023-05-19T03:59:56.064Z,89.16
2023-05-19T04:02:23.992Z,89.52
2023-05-19T04:04:52.429Z,89.14
2023-05-19T04:07:20.492Z,88.67
2023-05-19T04:09:48.672Z,88.07
2023-05-19T04:12:16.520Z,88.06
2023-05-19T04:14:44.292Z,88.83
2023-05-19T04:17:13.490Z,87.82
2023-05-19T04:19:41.384Z,87.66
2023-05-19T04:22:09.172Z,87.44
2023-05-19T04:24:37.102Z,87.66
2023-05-19T04:27:06.848Z,88.33
2023-05-19T04:29:35.610Z,87.19
2023-05-19T04:32:06.798Z,87.92
2023-05-19T04:34:36.332Z,87.32
2023-05-19T04:37:04.320Z,85.64
2023-05-19T04:39:32.070Z,85.79
2023-05-19T04:41:59.886Z,84.63
2023-05-19T04:44:27.742Z,84.58
2023-05-19T04:46:57.844Z,84.23
2023-05-19T04:49:28.564Z,83.07
2023-05-19T04:51:57.865Z,81.74
2023-05-19T04:54:26.410Z,79.64
2023-05-19T04:56:54.186Z,78.51
2023-05-19T04:59:23.386Z,77.15
2023-05-19T05:01:51.202Z,75.76
2023-05-19T05:04:19.102Z,75.68
2023-05-19T05:06:48.024Z,74.02
2023-05-19T05:09:18.059Z,73.11
2023-05-19T05:11:46.388Z,72.64
2023-05-19T05:14:15.057Z,73.50
2023-05-19T05:16:43.607Z,72.79
2023-05-19T05:19:12.102Z,72.26
2023-05-19T05:21:41.460Z,71.81
2023-05-19T05:24:10.864Z,71.38
2023-05-19T05:26:40.927Z,69.94
2023-05-19T05:29:11.086Z,70.22
2023-05-19T05:31:38.939Z,70.36
2023-05-19T05:34:06.961Z,70.79
2023-05-19T05:36:35.949Z,70.95
2023-05-19T05:39:03.841Z,69.54
2023-05-19T05:41:35.523Z,68.93
2023-05-19T05:44:05.412Z,68.08
2023-05-19T05:46:33.696Z,66.61
2023-05-19T05:49:02.151Z,65.43
2023-05-19T05:51:31.159Z,63.76
2023-05-19T05:54:01.133Z,62.41
2023-05-19T05:56:29.559Z,62.39
2023-05-19T05:58:57.782Z,60.06
2023-05-19T06:01:27.006Z,59.72
2023-05-19T06:03:54.923Z,59.85
2023-05-19T06:06:22.781Z,57.97
2023-05-19T06:08:50.714Z,56.83
2023-05-19T06:11:19.549Z,57.47
2023-05-19T06:13:47.630Z,55.91
2023-05-19T06:16:15.633Z,56.39
2023-05-19T06:18:45.076Z,55.89
2023-05-19T06:21:13.291Z,55.00
2023-05-19T06:23:41.225Z,55.77
2023-05-19T06:26:09.138Z,55.75
2023-05-19T06:28:37.041Z,56.09
2023-05-19T06:31:05.366Z,55.58
2023-05-19T06:33:33.153Z,56.57
2023-05-19T06:36:02.414Z,57.52
2023-05-19T06:38:31.542Z,58.75
2023-05-19T06:40:59.314Z,59.53
2023-05-19T06:43:27.068Z,60.93
2023-05-19T06:45:54.809Z,60.93
2023-05-19T06:48:22.678Z,61.21
2023-05-19T06:50:50.638Z,60.55
2023-05-19T06:53:21.070Z,59.50
2023-05-19T06:55:58.619Z,58.30
2023-05-19T06:58:27.876Z,58.67
2023-05-19T07:00:55.757Z,56.89
2023-05-19T07:03:23.639Z,56.29
2023-05-19T07:05:51.650Z,55.77
2023-05-19T07:08:20.807Z,56.64
2023-05-19T07:10:48.762Z,56.30
2023-05-19T07:13:16.812Z,57.24
2023-05-19T07:15:44.775Z,58.23
2023-05-19T07:18:12.569Z,57.84
2023-05-19T07:20:40.378Z,59.78
2023-05-19T07:23:08.181Z,61.85
2023-05-19T07:25:37.282Z,61.22
2023-05-19T07:28:05.418Z,59.42
2023-05-19T07:30:33.455Z,59.04
2023-05-19T07:33:01.554Z,56.73
2023-05-19T07:35:29.384Z,57.14
2023-05-19T07:37:57.221Z,57.12
2023-05-19T07:40:25.067Z,52.66
2023-05-19T07:42:54.376Z,51.84
2023-05-19T07:45:22.366Z,50.94
2023-05-19T07:47:50.260Z,50.61
2023-05-19T07:50:18.221Z,49.68
2023-05-19T07:52:46.169Z,49.88
2023-05-19T07:55:14.742Z,49.71
2023-05-19T07:57:42.572Z,50.76
2023-05-19T08:00:15.993Z,51.13
2023-05-19T08:02:44.112Z,52.31
2023-05-19T08:05:12.058Z,51.71
2023-05-19T08:07:39.868Z,51.77
2023-05-19T08:10:08.697Z,52.13
2023-05-19T08:12:36.480Z,52.95
2023-05-19T08:15:04.420Z,52.69
2023-05-19T08:17:33.586Z,52.66
2023-05-19T08:20:01.457Z,52.94
2023-05-19T08:22:29.275Z,52.08
2023-05-19T08:24:57.051Z,50.66
2023-05-19T08:27:25.042Z,51.83
2023-05-19T08:29:52.972Z,50.94
2023-05-19T08:32:22.787Z,52.48
2023-05-19T08:34:53.331Z,52.64
2023-05-19T08:37:21.137Z,52.73
2023-05-19T08:39:49.019Z,53.55
2023-05-19T08:42:17.050Z,53.05
2023-05-19T08:44:44.924Z,53.43
2023-05-19T08:47:13.898Z,49.56
2023-05-19T08:49:45.329Z,50.48
2023-05-19T08:52:25.377Z,51.80
2023-05-19T08:54:57.705Z,52.63
2023-05-19T08:57:26.629Z,51.82
2023-05-19T08:59:55.885Z,53.23
2023-05-19T09:02:24.360Z,54.13
2023-05-19T09:04:53.003Z,52.74
2023-05-19T09:07:25.490Z,53.75
2023-05-19T09:09:53.350Z,53.41
2023-05-19T09:12:21.698Z,53.19
2023-05-19T09:14:49.829Z,51.86
2023-05-19T09:17:18.952Z,51.01
2023-05-19T09:19:48.127Z,51.84
2023-05-19T09:22:19.066Z,52.79
2023-05-19T09:24:48.606Z,50.96
2023-05-19T09:27:22.184Z,50.69
2023-05-19T09:29:50.303Z,50.53
2023-05-19T09:32:26.678Z,52.03
2023-05-19T09:34:55.353Z,52.52
2023-05-19T09:37:25.224Z,52.59
2023-05-19T09:39:54.460Z,52.24
2023-05-19T09:42:26.296Z,52.36
2023-05-19T09:45:01.721Z,51.43
2023-05-19T09:47:30.651Z,51.84
2023-05-19T09:49:58.543Z,51.65
2023-05-19T09:52:27.350Z,52.83
2023-05-19T09:54:57.885Z,52.31
2023-05-19T09:57:28.235Z,51.73
2023-05-19T09:59:57.950Z,52.69
2023-05-19T10:02:27.178Z,52.60
2023-05-19T10:04:56.226Z,53.03
2023-05-19T10:07:25.244Z,52.27
2023-05-19T10:09:56.633Z,53.03
2023-05-19T10:12:28.017Z,53.17
2023-05-19T10:14:56.639Z,53.85
2023-05-19T10:17:27.207Z,53.49
2023-05-19T10:19:55.933Z,52.74
2023-05-19T10:22:23.774Z,53.00
2023-05-19T10:24:51.712Z,52.84
2023-05-19T10:27:20.299Z,52.53
2023-05-19T10:29:52.751Z,52.79
2023-05-19T10:32:25.861Z,53.32
2023-05-19T10:35:18.178Z,54.02
2023-05-19T10:37:52.542Z,53.78
2023-05-19T10:40:27.636Z,54.50
2023-05-19T10:43:11.727Z,54.55
2023-05-19T10:45:48.679Z,53.75
2023-05-19T10:48:17.599Z,52.18
2023-05-19T10:50:46.732Z,51.93
2023-05-19T10:53:20.936Z,51.53
2023-05-19T10:55:53.185Z,52.79
2023-05-19T10:58:52.054Z,52.50
2023-05-19T11:01:22.197Z,51.23
2023-05-19T11:03:52.358Z,50.83
2023-05-19T11:06:28.048Z,52.67
2023-05-19T11:08:58.614Z,50.05
2023-05-19T11:11:26.540Z,50.50
2023-05-19T11:13:56.288Z,50.01
2023-05-19T11:16:33.481Z,49.82
2023-05-19T11:19:01.902Z,49.79
2023-05-19T11:21:43.649Z,50.18
2023-05-19T11:24:11.721Z,49.88
2023-05-19T11:26:43.529Z,50.09
2023-05-19T11:29:12.243Z,49.71
2023-05-19T11:31:44.333Z,49.87
2023-05-19T11:34:13.831Z,50.64
2023-05-19T11:36:44.078Z,50.85
2023-05-19T11:39:13.508Z,51.05
2023-05-19T11:41:41.638Z,50.63
2023-05-19T11:44:11.961Z,51.95
2023-05-19T11:46:41.527Z,51.25
2023-05-19T11:49:10.574Z,50.85
2023-05-19T11:51:38.568Z,49.32
2023-05-19T11:54:06.414Z,50.80
2023-05-19T11:56:36.713Z,50.77
2023-05-19T11:59:04.618Z,50.76
2023-05-19T12:01:32.625Z,52.32
2023-05-19T12:04:02.088Z,51.67
2023-05-19T12:06:31.078Z,52.12
2023-05-19T12:08:59.212Z,50.86
2023-05-19T12:11:29.471Z,51.91
2023-05-19T12:14:00.126Z,52.02
2023-05-19T12:16:35.431Z,51.06
2023-05-19T12:19:06.648Z,50.71
2023-05-19T12:21:34.637Z,50.81
2023-05-19T12:24:03.072Z,52.47
2023-05-19T12:26:30.964Z,50.88
2023-05-19T12:28:59.848Z,51.20
2023-05-19T12:31:27.837Z,51.59
2023-05-19T12:33:57.108Z,51.68
2023-05-19T12:36:27.120Z,52.63
2023-05-19T12:38:57.714Z,52.53
2023-05-19T12:41:27.289Z,52.89
2023-05-19T12:43:55.869Z,52.73
2023-05-19T12:46:23.822Z,53.67
2023-05-19T12:48:51.733Z,53.20
2023-05-19T12:51:20.196Z,53.83
2023-05-19T12:53:51.404Z,52.18
2023-05-19T12:56:19.325Z,51.02
2023-05-19T12:58:47.147Z,52.71
2023-05-19T13:01:19.613Z,51.54
2023-05-19T13:03:47.691Z,51.24
2023-05-19T13:06:15.689Z,50.94
2023-05-19T13:08:43.628Z,52.11
2023-05-19T13:11:12.870Z,50.75
2023-05-19T13:13:40.791Z,51.55
2023-05-19T13:16:08.885Z,51.66
2023-05-19T13:18:38.340Z,51.40
2023-05-19T13:21:06.782Z,50.79
2023-05-19T13:23:35.041Z,50.32
2023-05-19T13:26:04.983Z,49.97
2023-05-19T13:28:34.849Z,50.34
2023-05-19T13:31:02.974Z,51.28
2023-05-19T13:33:30.850Z,52.18
2023-05-19T13:35:58.813Z,52.33
2023-05-19T13:38:26.804Z,53.50
2023-05-19T13:40:54.731Z,53.12
2023-05-19T13:43:22.670Z,53.10
2023-05-19T13:45:52.062Z,53.06
2023-05-19T13:48:20.106Z,51.98
2023-05-19T13:50:48.056Z,51.55
2023-05-19T13:53:15.871Z,50.91
2023-05-19T13:55:43.681Z,51.70
2023-05-19T13:58:12.559Z,51.93
2023-05-19T14:00:40.887Z,52.53
2023-05-19T14:03:10.472Z,53.00
2023-05-19T14:05:38.582Z,52.57
2023-05-19T14:08:06.825Z,52.93
2023-05-19T14:10:34.858Z,53.32
2023-05-19T14:13:29.707Z,52.35
2023-05-19T14:15:51.997Z,51.96
2023-05-19T14:18:21.520Z,52.48
2023-05-19T14:20:49.461Z,52.37
2023-05-19T14:23:17.337Z,52.25
2023-05-19T14:25:45.349Z,53.62
2023-05-19T14:28:13.195Z,53.89
2023-05-19T14:30:41.476Z,53.18
2023-05-19T14:33:09.674Z,52.37
2023-05-19T14:35:38.987Z,51.41
2023-05-19T14:38:06.854Z,51.91
2023-05-19T14:40:35.150Z,51.86
2023-05-19T14:43:03.265Z,52.88
2023-05-19T14:45:31.120Z,52.95
2023-05-19T14:47:58.968Z,53.09
2023-05-19T14:50:28.550Z,53.29
2023-05-19T14:52:58.490Z,53.35
2023-05-19T14:55:26.466Z,53.38
2023-05-19T14:57:54.352Z,53.31
2023-05-19T15:00:22.272Z,53.05
2023-05-19T15:02:50.205Z,51.75
2023-05-19T15:05:18.220Z,52.58
2023-05-19T15:07:46.109Z,52.86
2023-05-19T15:10:16.500Z,53.25
2023-05-19T15:12:44.420Z,53.73
2023-05-19T15:15:12.752Z,54.31
2023-05-19T15:17:41.116Z,54.66
2023-05-19T15:20:09.853Z,55.65
2023-05-19T15:22:37.969Z,54.52
2023-05-19T15:25:06.492Z,54.87
2023-05-19T15:27:37.433Z,54.73
2023-05-19T15:30:06.664Z,54.52
2023-05-19T15:32:34.805Z,54.66
2023-05-19T15:35:02.693Z,54.69
2023-05-19T15:37:30.603Z,54.66
2023-05-19T15:39:58.570Z,54.91
2023-05-19T15:42:26.567Z,55.47
2023-05-19T15:44:56.029Z,55.58
2023-05-19T15:47:24.353Z,55.83
2023-05-19T15:49:52.154Z,56.59
2023-05-19T15:52:20.122Z,57.11
2023-05-19T15:54:48.893Z,56.86
2023-05-19T15:57:16.799Z,56.22
2023-05-19T15:59:44.655Z,55.90
2023-05-19T16:02:14.091Z,56.29
2023-05-19T16:04:42.031Z,55.99
2023-05-19T16:07:09.856Z,56.71
2023-05-19T16:09:37.769Z,57.20
2023-05-19T16:12:06.091Z,55.81
2023-05-19T16:14:36.460Z,55.52
2023-05-19T16:17:04.695Z,56.20
2023-05-19T16:19:34.301Z,56.92
2023-05-19T16:22:02.254Z,56.12
2023-05-19T16:24:30.087Z,56.65
2023-05-19T16:26:58.029Z,56.71
2023-05-19T16:29:25.969Z,56.81
2023-05-19T16:31:54.101Z,56.87
2023-05-19T16:34:22.061Z,57.05
2023-05-19T16:36:51.213Z,57.15
2023-05-19T16:39:19.370Z,57.80
2023-05-19T16:41:47.272Z,57.79
2023-05-19T16:44:15.120Z,57.74
2023-05-19T16:46:43.482Z,57.86
2023-05-19T16:49:11.813Z,57.77
2023-05-19T16:51:39.666Z,58.60
2023-05-19T16:54:08.908Z,58.96
2023-05-19T16:56:36.767Z,58.63
2023-05-19T16:59:04.746Z,58.64
2023-05-19T17:01:32.733Z,58.39
2023-05-19T17:04:00.673Z,58.77
2023-05-19T17:06:28.545Z,59.13
2023-05-19T17:08:56.544Z,58.87
2023-05-19T17:11:26.712Z,59.46
2023-05-19T17:13:54.700Z,59.18
2023-05-19T17:16:23.489Z,59.51
2023-05-19T17:18:51.551Z,59.89
2023-05-19T17:21:19.441Z,59.92
2023-05-19T17:23:47.306Z,59.65
2023-05-19T17:26:15.877Z,59.65
2023-05-19T17:28:45.220Z,60.28
2023-05-19T17:31:13.910Z,60.22
2023-05-19T17:33:42.228Z,60.36
2023-05-19T17:36:10.138Z,60.25
2023-05-19T17:38:40.296Z,60.43
2023-05-19T17:41:10.152Z,61.23
2023-05-19T17:43:38.386Z,61.72
2023-05-19T17:46:08.378Z,61.88
2023-05-19T17:48:37.298Z,62.37
2023-05-19T17:51:07.080Z,62.78
2023-05-19T17:53:36.498Z,62.02
2023-05-19T17:56:07.368Z,62.46
2023-05-19T17:58:36.121Z,62.53
2023-05-19T18:01:04.460Z,63.32
2023-05-19T18:03:34.794Z,63.13
2023-05-19T18:06:03.188Z,63.45
2023-05-19T18:08:32.228Z,63.20
2023-05-19T18:11:01.309Z,63.71
2023-05-19T18:13:29.247Z,63.64
2023-05-19T18:15:57.742Z,64.17
2023-05-19T18:18:25.726Z,64.46
2023-05-19T18:20:55.065Z,64.37
2023-05-19T18:23:22.954Z,64.64
2023-05-19T18:25:51.756Z,64.86
2023-05-19T18:28:19.658Z,65.41
2023-05-19T18:30:47.589Z,64.98
2023-05-19T18:33:15.447Z,65.33
2023-05-19T18:35:43.308Z,65.25
2023-05-19T18:38:12.586Z,65.73
2023-05-19T18:40:44.226Z,66.16
2023-05-19T18:43:12.303Z,66.59
2023-05-19T18:45:40.739Z,66.39
2023-05-19T18:48:08.907Z,66.38
2023-05-19T18:50:37.124Z,66.79
2023-05-19T18:53:04.989Z,67.25
2023-05-19T18:55:35.428Z,67.56
2023-05-19T18:58:04.424Z,67.78
2023-05-19T19:00:32.872Z,67.75
2023-05-19T19:03:01.770Z,67.94
2023-05-19T19:05:29.910Z,68.03
2023-05-19T19:07:58.007Z,68.79
2023-05-19T19:10:26.014Z,69.23
2023-05-19T19:12:58.002Z,69.63
2023-05-19T19:15:26.052Z,69.77
2023-05-19T19:17:54.115Z,70.13
2023-05-19T19:20:22.063Z,69.86
2023-05-19T19:22:52.993Z,69.52
2023-05-19T19:25:23.114Z,70.49
2023-05-19T19:27:51.613Z,71.39
2023-05-19T19:30:20.936Z,71.63
2023-05-19T19:32:48.938Z,71.68
2023-05-19T19:35:17.003Z,72.03
2023-05-19T19:37:46.830Z,71.85
2023-05-19T19:40:15.275Z,72.63
2023-05-19T19:42:43.262Z,73.36
2023-05-19T19:45:14.766Z,73.56
2023-05-19T19:47:45.141Z,73.61
2023-05-19T19:50:13.237Z,73.79
2023-05-19T19:52:41.130Z,73.53
2023-05-19T19:55:10.589Z,73.91
2023-05-19T19:57:38.569Z,74.36
2023-05-19T20:00:09.076Z,74.62
2023-05-19T20:02:45.628Z,74.41
2023-05-19T20:05:21.245Z,75.63
2023-05-19T20:07:49.270Z,75.98
2023-05-19T20:10:17.120Z,76.03
2023-05-19T20:12:47.128Z,77.13
2023-05-19T20:15:15.326Z,77.04
2023-05-19T20:17:43.237Z,77.00
2023-05-19T20:20:12.871Z,78.27
2023-05-19T20:22:44.320Z,78.83
2023-05-19T20:25:12.147Z,78.32
2023-05-19T20:27:39.956Z,78.91
2023-05-19T20:30:08.998Z,78.78
2023-05-19T20:32:37.032Z,79.76
2023-05-19T20:35:05.119Z,79.86
2023-05-19T20:37:32.941Z,80.27
2023-05-19T20:40:02.174Z,80.41
2023-05-19T20:42:30.095Z,81.09
2023-05-19T20:44:58.422Z,81.44
2023-05-19T20:47:27.255Z,81.05
2023-05-19T20:49:56.631Z,81.66
2023-05-19T20:52:24.503Z,81.19
2023-05-19T20:54:53.536Z,81.27
2023-05-19T20:57:22.837Z,81.28
2023-05-19T20:59:51.032Z,81.48
2023-05-19T21:02:18.894Z,82.07
2023-05-19T21:04:47.004Z,81.48
2023-05-19T21:07:14.993Z,80.88
2023-05-19T21:09:46.381Z,81.00
2023-05-19T21:12:16.082Z,81.82
2023-05-19T21:14:45.326Z,81.87
2023-05-19T21:17:13.351Z,81.53
2023-05-19T21:19:41.269Z,81.81
2023-05-19T21:22:09.155Z,82.45
2023-05-19T21:24:37.007Z,82.94
2023-05-19T21:27:05.136Z,83.01
2023-05-19T21:29:32.902Z,82.90
2023-05-19T21:32:02.055Z,83.43
2023-05-19T21:34:29.931Z,83.12
2023-05-19T21:36:57.759Z,82.56
2023-05-19T21:39:25.576Z,83.35
2023-05-19T21:41:53.441Z,82.72
2023-05-19T21:44:21.903Z,83.00
2023-05-19T21:46:49.756Z,84.02
2023-05-19T21:49:19.863Z,83.46
2023-05-19T21:51:47.742Z,83.05
2023-05-19T21:54:15.648Z,84.01
2023-05-19T21:56:45.273Z,84.50
2023-05-19T21:59:13.085Z,84.05
2023-05-19T22:01:40.955Z,84.15
2023-05-19T22:04:09.422Z,83.55
2023-05-19T22:06:38.844Z,83.30
2023-05-19T22:09:06.787Z,83.67
2023-05-19T22:11:34.704Z,84.34
2023-05-19T22:14:02.656Z,84.22
2023-05-19T22:16:30.995Z,83.37
2023-05-19T22:18:58.867Z,84.06
2023-05-19T22:21:26.744Z,83.51
2023-05-19T22:23:55.963Z,84.77
2023-05-19T22:26:23.743Z,83.97
2023-05-19T22:28:51.916Z,84.19
2023-05-19T22:31:19.952Z,83.97
2023-05-19T22:33:47.846Z,83.78
2023-05-19T22:36:16.012Z,84.70
2023-05-19T22:38:43.854Z,84.96
2023-05-19T22:41:13.099Z,85.58
2023-05-19T22:43:40.988Z,86.01
2023-05-19T22:46:08.804Z,86.12
2023-05-19T22:48:36.644Z,86.61
2023-05-19T22:51:04.611Z,86.64
2023-05-19T22:53:32.396Z,87.10
2023-05-19T22:56:00.193Z,87.67
2023-05-19T22:58:33.518Z,88.02
2023-05-19T23:01:01.348Z,88.27
2023-05-19T23:03:29.156Z,87.94
2023-05-19T23:05:56.905Z,88.09
2023-05-19T23:08:24.883Z,88.07
2023-05-19T23:10:52.795Z,87.70
2023-05-19T23:13:20.601Z,88.21
2023-05-19T23:15:49.840Z,88.18
2023-05-19T23:18:17.602Z,88.62
2023-05-19T23:20:45.679Z,89.15
2023-05-19T23:23:13.431Z,89.27
2023-05-19T23:25:41.194Z,89.27
2023-05-19T23:28:10.369Z,89.66
2023-05-19T23:30:38.507Z,90.05
2023-05-19T23:33:07.961Z,90.33
2023-05-19T23:35:36.285Z,90.53
2023-05-19T23:38:04.353Z,90.78
2023-05-19T23:40:32.211Z,90.63
2023-05-19T23:43:00.123Z,90.06
2023-05-19T23:45:27.991Z,90.19
2023-05-19T23:47:55.885Z,89.82
2023-05-19T23:50:25.052Z,90.57
2023-05-19T23:52:53.009Z,90.29
2023-05-19T23:55:21.139Z,90.37
2023-05-19T23:57:48.889Z,90.58
